Time;durP1;ratioP1;P1;durP2;ratioP2;P2;SDS_P1;SDS_P2;PMS_P1;PMS_P2;Temp;Humidity;BMP_temperature;BMP_pressure;BME280_temperature;BME280_humidity;BME280_pressure;Samples;Min_cycle;Max_cycle;Signal;HPM_P1;HPM_P2
2023/09/12 00:01:26;;;;;;;15.77;14.57;;;;;;;16.48;100.00;96685.66;4937013;28;20346;-58
2023/09/12 00:03:53;;;;;;;15.47;14.37;;;;;;;16.42;100.00;96682.03;4939801;28;20291;-62
2023/09/12 00:06:21;;;;;;;16.33;15.03;;;;;;;16.48;100.00;96691.00;4890168;28;20211;-62
2023/09/12 00:08:50;;;;;;;15.80;14.60;;;;;;;16.42;100.00;96683.91;4941255;28;20302;-60
2023/09/12 00:11:18;;;;;;;16.40;15.10;;;;;;;16.35;100.00;96678.69;4933853;28;20227;-61
2023/09/12 00:13:46;;;;;;;16.93;15.53;;;;;;;16.29;100.00;96680.44;4940787;28;20583;-60
2023/09/12 00:16:13;;;;;;;15.87;14.67;;;;;;;16.25;100.00;96686.50;4938821;28;20266;-63
2023/09/12 00:18:42;;;;;;;14.70;13.60;;;;;;;16.19;100.00;96691.72;4940641;28;20239;-65
2023/09/12 00:21:10;;;;;;;13.80;12.80;;;;;;;16.14;100.00;96690.78;4807552;28;20895;-63
2023/09/12 00:23:38;;;;;;;15.63;14.53;;;;;;;16.14;100.00;96688.94;4939330;28;20624;-61
2023/09/12 00:26:07;;;;;;;16.00;14.80;;;;;;;16.10;100.00;96689.63;4935881;28;20246;-61
2023/09/12 00:28:34;;;;;;;15.20;14.03;;;;;;;16.07;100.00;96688.19;4939965;28;20250;-57
2023/09/12 00:31:02;;;;;;;15.03;13.93;;;;;;;16.04;100.00;96694.84;4937154;28;20206;-59
2023/09/12 00:33:30;;;;;;;16.00;14.60;;;;;;;15.98;100.00;96681.59;4940768;28;20322;-60
2023/09/12 00:35:57;;;;;;;15.73;14.53;;;;;;;15.95;100.00;96682.88;4936903;28;20223;-58
2023/09/12 00:38:25;;;;;;;15.43;14.23;;;;;;;15.91;100.00;96679.84;4936208;28;20250;-58
2023/09/12 00:40:53;;;;;;;15.77;14.47;;;;;;;15.91;100.00;96684.38;4885525;28;20264;-61
2023/09/12 00:43:21;;;;;;;17.17;15.83;;;;;;;15.86;100.00;96671.69;4939845;28;20210;-61
2023/09/12 00:45:49;;;;;;;17.87;16.57;;;;;;;15.89;100.00;96684.59;4936803;28;20210;-63
2023/09/12 00:48:18;;;;;;;16.57;15.07;;;;;;;15.84;100.00;96678.28;4938489;28;20203;-59
2023/09/12 00:50:46;;;;;;;17.10;15.80;;;;;;;15.73;100.00;96667.34;4935236;28;20210;-60
2023/09/12 00:53:14;;;;;;;16.90;15.70;;;;;;;15.78;100.00;96677.38;4938176;28;20302;-58
2023/09/12 00:55:46;;;;;;;16.63;15.23;;;;;;;15.76;100.00;96677.56;4832881;28;23043;-60
2023/09/12 00:58:14;;;;;;;16.27;15.07;;;;;;;15.72;100.00;96673.75;4935369;28;20218;-62
2023/09/12 01:00:43;;;;;;;16.33;15.13;;;;;;;15.69;100.00;96668.84;4936462;28;20235;-62
2023/09/12 01:03:11;;;;;;;17.07;15.77;;;;;;;15.65;100.00;96675.72;4940260;28;20350;-64
2023/09/12 01:05:39;;;;;;;17.33;15.93;;;;;;;15.63;100.00;96675.91;4935471;28;20206;-63
2023/09/12 01:08:06;;;;;;;17.30;15.73;;;;;;;15.58;100.00;96665.13;4937239;28;20289;-61
2023/09/12 01:10:34;;;;;;;16.83;15.47;;;;;;;15.58;100.00;96669.66;4906950;28;20855;-61
2023/09/12 01:13:02;;;;;;;17.80;16.40;;;;;;;15.54;100.00;96666.63;4921552;28;20207;-62
2023/09/12 01:15:30;;;;;;;16.57;15.37;;;;;;;15.56;100.00;96672.53;4934781;28;20390;-61
2023/09/12 01:18:00;;;;;;;17.03;15.63;;;;;;;15.57;100.00;96666.16;4930656;28;20214;-60
2023/09/12 01:20:30;;;;;;;18.43;16.77;;;;;;;15.58;100.00;96669.66;4934428;28;20207;-61
2023/09/12 01:23:01;;;;;;;16.97;15.57;;;;;;;15.59;100.00;96674.75;4936767;28;21006;-59
2023/09/12 01:25:52;;;;;;;17.40;16.10;;;;;;;15.61;100.00;96675.34;4933022;28;20211;-64
2023/09/12 01:28:25;;;;;;;16.20;15.00;;;;;;;15.56;100.00;96659.19;4939660;28;20745;-61
2023/09/12 01:30:53;;;;;;;17.10;15.83;;;;;;;15.54;100.00;96660.47;4804145;28;21539;-55
2023/09/12 01:33:20;;;;;;;18.17;16.60;;;;;;;15.45;100.00;96665.31;4938370;28;20214;-56
2023/09/12 01:35:48;;;;;;;16.70;15.50;;;;;;;15.44;100.00;96653.81;4934797;28;20257;-63
2023/09/12 01:38:16;;;;;;;17.17;15.77;;;;;;;15.43;100.00;96670.09;4938822;28;20211;-60
2023/09/12 01:40:48;;;;;;;16.70;15.40;;;;;;;15.42;100.00;96665.78;4932494;28;20595;-62
2023/09/12 01:43:17;;;;;;;16.17;14.87;;;;;;;15.40;100.00;96675.88;4939284;28;20211;-62
2023/09/12 01:45:46;;;;;;;18.47;17.00;;;;;;;15.41;100.00;96674.84;4893727;28;20861;-61
2023/09/12 01:48:20;;;;;;;17.00;15.70;;;;;;;15.40;100.00;96675.88;4935180;28;20254;-60
2023/09/12 01:50:48;;;;;;;18.27;16.60;;;;;;;15.38;100.00;96672.63;4932632;28;20214;-63
2023/09/12 01:53:16;;;;;;;18.10;16.67;;;;;;;15.35;100.00;96668.53;4933714;28;20315;-60
2023/09/12 01:55:44;;;;;;;17.43;16.13;;;;;;;15.29;100.00;96670.25;4932166;28;20234;-63
2023/09/12 01:58:12;;;;;;;17.40;16.10;;;;;;;15.25;100.00;96662.94;4938974;28;20238;-59
2023/09/12 02:00:40;;;;;;;16.20;15.00;;;;;;;15.23;100.00;96660.50;4876053;28;20204;-59
2023/09/12 02:03:09;;;;;;;16.27;14.97;;;;;;;15.21;100.00;96659.91;4933560;28;20221;-60
2023/09/12 02:05:37;;;;;;;17.03;15.73;;;;;;;15.24;100.00;96663.97;4805379;28;20219;-61
2023/09/12 02:08:05;;;;;;;17.43;15.73;;;;;;;15.22;100.00;96666.06;4938197;28;20242;-64
2023/09/12 02:10:33;;;;;;;16.80;15.60;;;;;;;15.20;100.00;96668.94;4931973;28;20234;-58
2023/09/12 02:13:00;;;;;;;16.33;15.03;;;;;;;15.22;100.00;96663.41;4937762;28;20203;-59
2023/09/12 02:15:28;;;;;;;17.77;16.07;;;;;;;15.25;100.00;96671.75;4933133;28;20287;-60
2023/09/12 02:17:56;;;;;;;17.13;15.73;;;;;;;15.27;100.00;96669.66;4936255;28;20203;-60
2023/09/12 02:20:25;;;;;;;17.40;16.03;;;;;;;15.25;100.00;96668.28;4887135;28;20801;-59
2023/09/12 02:22:53;;;;;;;15.40;14.30;;;;;;;15.22;100.00;96658.84;4936839;28;20199;-57
2023/09/12 02:25:21;;;;;;;16.13;14.87;;;;;;;15.19;100.00;96664.66;4933771;28;20259;-65
2023/09/12 02:27:48;;;;;;;16.77;15.30;;;;;;;15.18;100.00;96665.69;4937907;28;20203;-58
2023/09/12 02:30:16;;;;;;;17.03;15.43;;;;;;;15.14;100.00;96670.66;4935429;28;20266;-61
2023/09/12 02:32:44;;;;;;;17.60;16.30;;;;;;;15.15;100.00;96663.47;4933565;28;20453;-64
2023/09/12 02:35:11;;;;;;;16.97;15.67;;;;;;;15.14;100.00;96665.31;4799814;28;20353;-60
2023/09/12 02:37:40;;;;;;;16.83;15.43;;;;;;;15.12;100.00;96662.06;4936408;28;20780;-59
2023/09/12 02:40:11;;;;;;;16.37;15.17;;;;;;;15.11;100.00;96667.63;4934148;28;20214;-57
2023/09/12 02:42:38;;;;;;;15.97;14.87;;;;;;;15.08;100.00;96674.22;4934794;28;20223;-58
2023/09/12 02:45:07;;;;;;;16.93;15.67;;;;;;;15.05;100.00;96666.69;4930261;28;20238;-61
2023/09/12 02:47:35;;;;;;;17.37;16.07;;;;;;;15.10;100.00;96679.34;4933974;28;20707;-59
2023/09/12 02:50:03;;;;;;;18.40;16.90;;;;;;;15.11;100.00;96680.97;4883736;28;20214;-63
2023/09/12 02:52:30;;;;;;;19.17;17.40;;;;;;;15.08;100.00;96676.09;4935920;28;20690;-60
2023/09/12 02:54:59;;;;;;;18.13;16.73;;;;;;;15.04;100.00;96678.38;4933306;28;20310;-58
2023/09/12 02:57:27;;;;;;;17.20;15.90;;;;;;;15.01;100.00;96677.00;4936439;28;20266;-62
2023/09/12 02:59:54;;;;;;;16.83;15.53;;;;;;;14.98;100.00;96677.47;4932941;28;20682;-62
2023/09/12 03:02:22;;;;;;;17.70;16.20;;;;;;;14.95;100.00;96682.41;4939453;28;20888;-60
2023/09/12 03:04:50;;;;;;;16.97;15.63;;;;;;;14.90;100.00;96683.91;4936633;28;20226;-64
2023/09/12 03:07:18;;;;;;;16.53;15.33;;;;;;;14.85;100.00;96685.59;4940354;28;20202;-61
2023/09/12 03:09:48;;;;;;;15.37;14.23;;;;;;;14.83;100.00;96682.34;4804519;28;20211;-61
2023/09/12 03:12:18;;;;;;;16.77;15.47;;;;;;;14.73;100.00;96675.69;4922170;28;20223;-61
2023/09/12 03:14:45;;;;;;;16.87;15.57;;;;;;;14.79;100.00;96679.31;4902900;28;20317;-59
2023/09/12 03:17:13;;;;;;;17.90;16.43;;;;;;;14.80;100.00;96688.13;4941356;28;20305;-65
2023/09/12 03:19:41;;;;;;;17.23;15.83;;;;;;;14.81;100.00;96685.25;4920228;28;20207;-60
2023/09/12 03:22:09;;;;;;;17.63;15.93;;;;;;;14.78;100.00;96691.03;4934848;28;20270;-62
2023/09/12 03:24:37;;;;;;;17.80;16.27;;;;;;;14.73;100.00;96688.19;4899802;28;20245;-60
2023/09/12 03:27:05;;;;;;;18.60;16.83;;;;;;;14.71;100.00;96683.09;4878572;28;20350;-60
2023/09/12 03:29:34;;;;;;;17.77;16.37;;;;;;;14.70;100.00;96685.94;4937215;28;20844;-60
2023/09/12 03:32:01;;;;;;;16.70;15.20;;;;;;;14.67;100.00;96683.72;4935439;28;20203;-62
2023/09/12 03:34:29;;;;;;;16.20;14.97;;;;;;;14.60;100.00;96684.63;4941979;28;20313;-62
2023/09/12 03:36:57;;;;;;;18.13;16.60;;;;;;;14.56;100.00;96680.78;4934185;28;20228;-59
2023/09/12 03:39:25;;;;;;;17.90;16.40;;;;;;;14.44;100.00;96670.03;4876675;28;22720;-62
2023/09/12 03:41:53;;;;;;;17.33;15.93;;;;;;;14.52;100.00;96679.59;4882123;28;20218;-63
2023/09/12 03:44:20;;;;;;;16.80;15.50;;;;;;;14.51;100.00;96674.47;4941944;28;20231;-61
2023/09/12 03:46:49;;;;;;;17.40;16.00;;;;;;;14.48;100.00;96676.53;4938025;28;20293;-62
2023/09/12 03:49:17;;;;;;;16.53;15.20;;;;;;;14.36;100.00;96662.31;4922451;28;20298;-61
2023/09/12 03:51:45;;;;;;;16.70;15.37;;;;;;;14.41;100.00;96667.00;4903649;28;20215;-60
2023/09/12 03:54:12;;;;;;;15.63;14.47;;;;;;;14.39;100.00;96674.38;4934747;28;20227;-59
2023/09/12 03:56:40;;;;;;;17.03;15.73;;;;;;;14.37;100.00;96668.44;4895963;28;20230;-63
2023/09/12 03:59:11;;;;;;;15.60;14.40;;;;;;;14.32;100.00;96667.28;4936952;28;20207;-62
2023/09/12 04:01:39;;;;;;;16.33;15.03;;;;;;;14.29;100.00;96673.03;4934155;28;20200;-59
2023/09/12 04:04:08;;;;;;;16.13;14.63;;;;;;;14.29;100.00;96675.69;4936740;28;20294;-62
2023/09/12 04:06:36;;;;;;;17.30;15.97;;;;;;;14.32;100.00;96674.47;4933023;28;20207;-60
2023/09/12 04:09:04;;;;;;;16.73;15.50;;;;;;;14.28;100.00;96675.94;4935403;28;20211;-64
2023/09/12 04:11:32;;;;;;;17.63;16.23;;;;;;;14.32;100.00;96679.78;4820987;28;20225;-58
2023/09/12 04:14:14;;;;;;;16.90;15.50;;;;;;;14.27;100.00;96671.66;4922566;28;20917;-60
2023/09/12 04:16:42;;;;;;;16.93;15.63;;;;;;;14.29;100.00;96680.22;4894276;28;20231;-61
2023/09/12 04:19:11;;;;;;;17.20;15.93;;;;;;;14.26;100.00;96676.16;4936724;28;20211;-61
2023/09/12 04:21:38;;;;;;;17.00;15.60;;;;;;;14.25;100.00;96679.03;4932376;28;20306;-59
2023/09/12 04:24:07;;;;;;;16.90;15.60;;;;;;;14.26;100.00;96686.00;4936608;28;20317;-62
2023/09/12 04:26:35;;;;;;;17.37;15.77;;;;;;;14.23;100.00;96676.59;4934125;28;20728;-62
2023/09/12 04:29:03;;;;;;;16.30;15.10;;;;;;;14.23;100.00;96678.44;4937375;28;20207;-61
2023/09/12 04:31:30;;;;;;;17.37;15.90;;;;;;;14.20;100.00;96674.38;4883335;28;20213;-63
2023/09/12 04:33:58;;;;;;;16.17;14.87;;;;;;;14.17;100.00;96680.13;4936031;28;20885;-57
2023/09/12 04:36:27;;;;;;;17.50;16.10;;;;;;;14.18;100.00;96684.44;4915006;28;20242;-57
2023/09/12 04:38:54;;;;;;;17.23;15.60;;;;;;;14.18;100.00;96684.44;4936523;28;20598;-59
2023/09/12 04:41:22;;;;;;;16.87;15.53;;;;;;;14.21;100.00;96691.19;4935083;28;20230;-61
2023/09/12 04:43:50;;;;;;;15.73;14.63;;;;;;;14.18;100.00;96685.22;4935966;28;20289;-64
2023/09/12 04:46:17;;;;;;;17.77;16.40;;;;;;;14.19;100.00;96692.19;4808966;28;20739;-62
2023/09/12 04:48:45;;;;;;;17.50;16.20;;;;;;;14.18;100.00;96682.56;4936656;28;20222;-61
2023/09/12 04:51:13;;;;;;;15.90;14.30;;;;;;;14.15;100.00;96693.66;4933815;28;20350;-61
2023/09/12 04:53:42;;;;;;;15.60;14.40;;;;;;;14.11;100.00;96686.34;4937763;28;20308;-64
2023/09/12 04:56:10;;;;;;;17.03;15.50;;;;;;;14.11;100.00;96694.34;4935786;28;20281;-63
2023/09/12 04:58:38;;;;;;;17.23;15.90;;;;;;;14.11;100.00;96689.00;4937725;28;20202;-63
2023/09/12 05:01:06;;;;;;;16.10;14.90;;;;;;;14.11;100.00;96689.00;4931504;28;20210;-59
2023/09/12 05:03:33;;;;;;;16.67;15.37;;;;;;;14.13;100.00;96693.06;4938819;28;20241;-62
2023/09/12 05:06:01;;;;;;;17.20;15.77;;;;;;;14.15;100.00;96695.53;4888405;28;20784;-62
2023/09/12 05:08:29;;;;;;;16.73;15.23;;;;;;;14.19;100.00;96702.03;4886854;28;20207;-63
2023/09/12 05:10:58;;;;;;;17.07;15.67;;;;;;;14.24;100.00;96693.41;4932021;28;20204;-60
2023/09/12 05:13:26;;;;;;;17.10;15.80;;;;;;;14.31;100.00;96694.94;4933632;28;20309;-63
2023/09/12 05:15:54;;;;;;;17.33;16.03;;;;;;;14.36;100.00;96699.63;4811563;28;21276;-58
2023/09/12 05:18:21;;;;;;;16.97;15.37;;;;;;;14.38;100.00;96700.22;4939475;28;20698;-60
2023/09/12 05:20:49;;;;;;;17.47;15.73;;;;;;;14.38;100.00;96692.22;4888757;28;20237;-64
2023/09/12 05:23:17;;;;;;;17.93;15.93;;;;;;;14.52;100.00;96706.25;4936845;28;20213;-65
2023/09/12 05:25:45;;;;;;;17.70;16.10;;;;;;;14.57;100.00;96698.38;4934866;28;20710;-62
2023/09/12 05:28:15;;;;;;;16.73;15.13;;;;;;;14.66;100.00;96700.75;4938328;28;20254;-64
2023/09/12 05:30:43;;;;;;;16.90;15.27;;;;;;;14.72;100.00;96698.06;4934436;28;20222;-62
2023/09/12 05:33:11;;;;;;;19.83;17.90;;;;;;;14.80;100.00;96698.78;4935522;28;20203;-62
2023/09/12 05:35:40;;;;;;;22.70;17.03;;;;;;;14.85;100.00;96685.59;4905153;28;20211;-60
2023/09/12 05:38:08;;;;;;;20.13;16.77;;;;;;;15.04;100.00;96700.56;4928005;28;20255;-57
2023/09/12 05:40:35;;;;;;;16.93;15.40;;;;;;;15.15;100.00;96693.66;4932673;28;20242;-61
2023/09/12 05:43:03;;;;;;;16.43;14.97;;;;;;;15.27;100.00;96692.88;4937649;28;20270;-60
2023/09/12 05:45:32;;;;;;;21.47;16.10;;;;;;;15.40;100.00;96697.22;4937348;28;20584;-63
2023/09/12 05:48:00;;;;;;;17.23;15.40;;;;;;;15.51;100.00;96687.59;4934686;28;20378;-58
2023/09/12 05:50:30;;;;;;;17.10;15.67;;;;;;;15.58;100.00;96688.34;4873199;28;20592;-61
2023/09/12 05:52:58;;;;;;;20.77;16.23;;;;;;;15.68;100.00;96690.44;4887682;28;20238;-59
2023/09/12 05:55:25;;;;;;;26.27;16.83;;;;;;;15.84;100.00;96688.97;4938890;28;20297;-63
2023/09/12 05:57:53;;;;;;;19.43;16.87;;;;;;;15.98;100.00;96681.59;4934230;28;20317;-60
2023/09/12 06:00:21;;;;;;;18.97;17.23;;;;;;;16.12;100.00;96684.84;4939649;28;20239;-61
2023/09/12 06:02:50;;;;;;;18.07;16.50;;;;;;;16.20;100.00;96689.84;4933699;28;20207;-63
2023/09/12 06:05:17;;;;;;;17.77;16.13;;;;;;;16.31;100.00;96683.72;4937129;28;20246;-61
2023/09/12 06:07:46;;;;;;;18.60;16.93;;;;;;;16.40;100.00;96683.34;4937531;28;20202;-62
2023/09/12 06:10:14;;;;;;;17.57;15.90;;;;;;;16.53;100.00;96684.97;4935298;28;20239;-59
2023/09/12 06:12:42;;;;;;;17.53;16.10;;;;;;;16.60;100.00;96688.31;4893028;28;20235;-61
2023/09/12 06:15:10;;;;;;;17.00;15.40;;;;;;;16.67;100.00;96685.50;4934246;28;20230;-64
2023/09/12 06:17:38;;;;;;;18.63;17.13;;;;;;;16.73;100.00;96682.72;4935696;28;20647;-60
2023/09/12 06:20:08;;;;;;;19.60;17.77;;;;;;;16.76;100.00;96690.25;4935110;28;20702;-63
2023/09/12 06:22:36;;;;;;;21.37;19.53;;;;;;;16.96;100.00;96690.91;4937309;28;20286;-63
2023/09/12 06:25:05;;;;;;;19.00;17.33;;;;;;;17.10;100.00;96683.47;4936812;28;20238;-60
2023/09/12 06:27:33;;;;;;;19.37;17.73;;;;;;;17.31;100.00;96684.66;4819033;28;20214;-65
2023/09/12 06:30:01;;;;;;;19.83;18.20;;;;;;;17.34;100.00;96673.47;4939120;28;20209;-62
2023/09/12 06:32:28;;;;;;;20.17;18.40;;;;;;;17.55;100.00;96684.56;4937099;28;20229;-61
2023/09/12 06:34:56;;;;;;;18.33;16.93;;;;;;;17.70;100.00;96684.00;4944330;28;20227;-62
2023/09/12 06:37:25;;;;;;;20.40;18.53;;;;;;;17.88;100.00;96689.13;4940180;28;20263;-61
2023/09/12 06:39:53;;;;;;;19.30;17.80;;;;;;;17.90;100.00;96681.66;4942794;28;20299;-62
2023/09/12 06:42:20;;;;;;;18.87;17.27;;;;;;;17.99;100.00;96683.91;4893967;28;20223;-55
2023/09/12 06:44:48;;;;;;;21.17;19.03;;;;;;;18.08;100.00;96680.63;4939618;28;20615;-62
2023/09/12 06:47:16;;;;;;;19.77;18.17;;;;;;;18.14;100.00;96681.53;4935147;28;20266;-59
2023/09/12 06:49:43;;;;;;;18.53;16.97;;;;;;;18.31;100.00;96686.03;4941881;28;20258;-63
2023/09/12 06:52:16;;;;;;;17.47;16.03;;;;;;;18.51;100.00;96677.47;4933485;28;20682;-61
2023/09/12 06:54:45;;;;;;;17.37;16.00;;;;;;;18.69;100.00;96684.41;4942951;28;20825;-61
2023/09/12 06:57:13;;;;;;;17.13;15.53;;;;;;;18.66;100.00;96685.75;4810779;28;20215;-59
2023/09/12 06:59:41;;;;;;;18.20;16.47;;;;;;;18.91;100.00;96681.75;4939073;28;20212;-64
2023/09/12 07:02:09;;;;;;;16.90;15.37;;;;;;;18.98;100.00;96688.84;4938362;28;20309;-64
2023/09/12 07:04:37;;;;;;;15.87;14.57;;;;;;;19.05;100.00;96694.84;4942213;28;20230;-61
2023/09/12 07:07:05;;;;;;;16.40;14.97;;;;;;;19.26;100.00;96689.69;4936897;28;20239;-61
2023/09/12 07:09:33;;;;;;;17.67;15.90;;;;;;;19.09;100.00;96687.91;4941148;28;20203;-63
2023/09/12 07:12:05;;;;;;;16.80;15.17;;;;;;;19.15;100.00;96694.94;4934212;28;20626;-62
2023/09/12 07:14:33;;;;;;;16.37;15.07;;;;;;;19.38;100.00;96685.00;4942314;28;20829;-62
2023/09/12 07:17:00;;;;;;;17.20;15.53;;;;;;;19.37;100.00;96686.84;4892847;28;20743;-62
2023/09/12 07:19:28;;;;;;;17.73;16.07;;;;;;;19.55;100.00;96690.25;4941502;28;20293;-62
2023/09/12 07:21:56;;;;;;;16.77;15.37;;;;;;;19.79;100.00;96687.25;4938362;28;20234;-61
2023/09/12 07:24:25;;;;;;;16.33;14.93;;;;;;;20.02;100.00;96685.31;4940611;28;20497;-60
2023/09/12 07:26:53;;;;;;;15.83;14.43;;;;;;;20.15;100.00;96681.38;4808590;28;20755;-64
2023/09/12 07:29:22;;;;;;;16.60;15.10;;;;;;;20.63;100.00;96671.44;4940881;28;20254;-55
2023/09/12 07:31:53;;;;;;;15.83;14.43;;;;;;;21.28;100.00;96683.81;4940781;28;20207;-63
2023/09/12 07:34:21;;;;;;;14.93;13.73;;;;;;;21.96;100.00;96677.47;4938336;28;20230;-63
2023/09/12 07:36:51;;;;;;;16.10;14.17;;;;;;;21.76;100.00;96685.53;4937010;28;20318;-63
2023/09/12 07:39:18;;;;;;;15.33;13.93;;;;;;;22.03;100.00;96679.09;4936649;28;21554;-61
2023/09/12 07:41:46;;;;;;;15.97;14.50;;;;;;;21.86;100.00;96684.75;4939465;28;20203;-61
2023/09/12 07:44:15;;;;;;;14.73;13.43;;;;;;;21.65;100.00;96684.75;4940683;28;20401;-64
2023/09/12 07:46:44;;;;;;;15.87;14.37;;;;;;;21.63;100.00;96686.88;4936213;28;20211;-63
2023/09/12 07:49:12;;;;;;;16.70;15.10;;;;;;;21.46;100.00;96684.41;4939830;28;20206;-58
2023/09/12 07:51:39;;;;;;;15.33;13.73;;;;;;;21.44;100.00;96686.56;4893574;28;20841;-60
2023/09/12 07:54:07;;;;;;;16.37;15.07;;;;;;;21.25;100.00;96687.06;4940093;28;20309;-59
2023/09/12 07:56:35;;;;;;;16.97;15.47;;;;;;;21.24;100.00;96685.44;4937784;28;20282;-62
2023/09/12 07:59:03;;;;;;;15.30;14.10;;;;;;;21.16;100.00;96691.34;4939696;28;20310;-64
2023/09/12 08:01:30;;;;;;;15.67;14.47;;;;;;;21.38;100.00;96689.22;4806382;28;20219;-65
2023/09/12 08:03:59;;;;;;;16.20;14.80;;;;;;;21.38;100.00;96689.22;4933992;28;20227;-61
2023/09/12 08:06:27;;;;;;;15.87;14.67;;;;;;;21.43;100.00;96684.97;4935534;28;20203;-64
2023/09/12 08:08:55;;;;;;;17.03;15.77;;;;;;;21.30;100.00;96689.75;4938483;28;20552;-61
2023/09/12 08:11:22;;;;;;;14.77;13.60;;;;;;;21.29;100.00;96688.13;4934155;28;21807;-62
2023/09/12 08:13:50;;;;;;;16.23;14.60;;;;;;;21.36;100.00;96690.59;4936446;28;20227;-63
2023/09/12 08:16:18;;;;;;;16.00;14.80;;;;;;;21.27;100.00;96684.91;4932310;28;20630;-59
2023/09/12 08:18:45;;;;;;;14.87;13.53;;;;;;;21.63;100.00;96687.66;4937343;28;20235;-64
2023/09/12 08:21:14;;;;;;;14.77;13.50;;;;;;;21.54;100.00;96687.38;4890044;28;20215;-60
2023/09/12 08:23:42;;;;;;;16.77;14.27;;;;;;;21.98;100.00;96686.09;4880601;28;20235;-63
2023/09/12 08:26:11;;;;;;;15.03;13.73;;;;;;;22.10;100.00;96688.53;4937391;28;20212;-61
2023/09/12 08:28:38;;;;;;;15.23;14.10;;;;;;;22.10;100.00;96683.13;4934115;28;20290;-62
2023/09/12 08:31:06;;;;;;;15.00;13.80;;;;;;;22.11;100.00;96684.75;4935828;28;20209;-60
2023/09/12 08:33:34;;;;;;;15.60;14.33;;;;;;;22.34;100.00;96689.84;4805612;28;20250;-63
2023/09/12 08:36:02;;;;;;;15.63;14.23;;;;;;;22.46;100.00;96681.50;4940488;28;20265;-63
2023/09/12 08:38:31;;;;;;;14.23;13.03;;;;;;;22.73;100.00;96680.31;4936297;28;20351;-61
2023/09/12 08:40:58;;;;;;;14.77;13.43;;;;;;;22.67;100.00;96690.34;4937771;28;20294;-58
2023/09/12 08:43:26;;;;;;;15.37;13.93;;;;;;;22.81;100.00;96690.59;4934748;28;20266;-61
2023/09/12 08:45:54;;;;;;;18.53;15.00;;;;;;;22.94;100.00;96689.19;4939495;28;20631;-60
2023/09/12 08:48:23;;;;;;;15.07;13.67;;;;;;;22.79;100.00;96696.25;4934464;28;21639;-65
2023/09/12 08:50:53;;;;;;;15.83;14.43;;;;;;;22.93;100.00;96692.97;4938164;28;20209;-60
2023/09/12 08:53:22;;;;;;;15.37;14.03;;;;;;;23.04;100.00;96694.53;4889122;28;20235;-61
2023/09/12 08:55:52;;;;;;;15.10;13.83;;;;;;;23.11;100.00;96684.25;4937354;28;20325;-59
2023/09/12 08:58:21;;;;;;;14.67;13.47;;;;;;;23.49;100.00;96683.81;4933953;28;20909;-59
2023/09/12 09:00:49;;;;;;;14.87;13.60;;;;;;;23.48;100.00;96689.47;4940574;28;20878;-61
2023/09/12 09:03:17;;;;;;;15.33;14.13;;;;;;;23.46;100.00;96686.25;4804713;28;20222;-61
2023/09/12 09:05:45;;;;;;;16.33;14.23;;;;;;;23.63;100.00;96696.69;4939749;28;20210;-63
2023/09/12 09:08:14;;;;;;;14.87;13.70;;;;;;;23.60;100.00;96694.56;4934853;28;20293;-62
2023/09/12 09:10:56;;;;;;;15.50;14.40;;;;;;;23.55;100.00;96690.78;4938490;28;20817;-60
2023/09/12 09:13:25;;;;;;;16.20;15.03;;;;;;;23.56;100.00;96694.28;4931840;28;20208;-62
2023/09/12 09:16:10;;;;;;;17.77;16.30;;;;;;;23.76;100.00;96689.84;4938611;28;20213;-61
2023/09/12 09:18:51;;;;;;;16.33;15.23;;;;;;;23.76;100.00;96684.44;4937321;28;20238;-60
2023/09/12 09:21:20;;;;;;;17.40;15.93;;;;;;;23.79;100.00;96687.38;4941019;28;20215;-60
2023/09/12 09:23:48;;;;;;;17.70;16.30;;;;;;;23.89;100.00;96680.28;4891258;28;20249;-64
2023/09/12 09:26:17;;;;;;;16.90;15.50;;;;;;;23.95;100.00;96687.28;4938108;28;20222;-64
2023/09/12 09:28:44;;;;;;;16.67;15.27;;;;;;;24.09;100.00;96692.88;4935162;28;20302;-64
2023/09/12 09:31:12;;;;;;;17.20;15.73;;;;;;;24.25;100.00;96691.63;4937462;28;20758;-61
2023/09/12 09:33:41;;;;;;;14.43;13.33;;;;;;;24.43;100.00;96681.16;4936468;28;20301;-60
2023/09/12 09:36:09;;;;;;;14.60;13.63;;;;;;;24.64;100.00;96679.06;4938449;28;20333;-62
2023/09/12 09:38:37;;;;;;;14.63;13.63;;;;;;;24.74;100.00;96674.63;4805744;28;20223;-61
2023/09/12 09:41:05;;;;;;;14.17;13.07;;;;;;;24.73;100.00;96678.44;4937328;28;20294;-61
2023/09/12 09:43:34;;;;;;;14.90;13.70;;;;;;;24.83;100.00;96673.75;4934238;28;20230;-62
2023/09/12 09:46:03;;;;;;;12.83;11.93;;;;;;;24.85;100.00;96673.44;4939199;28;20254;-63
2023/09/12 09:48:32;;;;;;;13.90;12.87;;;;;;;24.89;100.00;96674.47;4933574;28;21202;-61
2023/09/12 09:51:03;;;;;;;13.73;12.73;;;;;;;24.87;100.00;96673.16;4938669;28;20290;-62
2023/09/12 09:53:33;;;;;;;13.67;12.57;;;;;;;24.96;100.00;96674.91;4934221;28;20623;-62
2023/09/12 09:56:11;;;;;;;12.33;11.50;;;;;;;24.99;100.00;96668.91;4938727;28;20230;-59
2023/09/12 09:58:47;;;;;;;14.10;13.00;;;;;;;25.04;100.00;96665.34;4889343;28;20211;-63
2023/09/12 10:01:19;;;;;;;14.00;12.70;;;;;;;25.29;100.00;96668.81;4937761;28;20241;-63
2023/09/12 10:03:47;;;;;;;12.97;10.90;;;;;;;25.51;100.00;96662.84;4931922;28;20283;-58
2023/09/12 10:06:16;;;;;;;13.20;12.30;;;;;;;25.36;100.00;96666.53;4937354;28;20698;-59
2023/09/12 10:08:45;;;;;;;12.70;11.67;;;;;;;25.40;100.00;96661.34;4934029;28;20678;-62
2023/09/12 10:11:15;;;;;;;12.50;11.57;;;;;;;25.39;100.00;96655.13;4937061;28;20230;-62
2023/09/12 10:13:48;;;;;;;12.37;11.50;;;;;;;25.48;100.00;96659.91;4814988;28;20816;-61
2023/09/12 10:16:17;;;;;;;12.37;11.37;;;;;;;25.78;100.00;96655.94;4935524;28;20652;-62
2023/09/12 10:18:50;;;;;;;11.57;10.67;;;;;;;25.95;100.00;96651.84;4935792;28;20218;-62
2023/09/12 10:21:23;;;;;;;12.07;11.07;;;;;;;26.03;100.00;96656.59;4937339;28;20223;-60
2023/09/12 10:23:51;;;;;;;11.43;10.63;;;;;;;26.08;100.00;96648.34;4933010;28;20229;-61
2023/09/12 10:26:20;;;;;;;12.03;11.13;;;;;;;26.21;100.00;96648.72;4938748;28;20277;-63
2023/09/12 10:28:51;;;;;;;12.47;11.47;;;;;;;26.29;100.00;96646.13;4932802;28;20314;-59
2023/09/12 10:31:19;;;;;;;11.73;10.93;;;;;;;26.30;100.00;96644.22;4937074;28;20294;-60
2023/09/12 10:33:47;;;;;;;12.20;11.20;;;;;;;26.32;100.00;96636.56;4887652;28;20300;-59
2023/09/12 10:36:16;;;;;;;11.37;10.47;;;;;;;26.42;100.00;96641.03;4938757;28;20215;-62
2023/09/12 10:38:45;;;;;;;11.70;10.90;;;;;;;26.36;100.00;96634.06;4932042;28;21737;-59
2023/09/12 10:41:14;;;;;;;11.87;10.40;;;;;;;26.34;100.00;96641.72;4939073;28;20290;-63
2023/09/12 10:43:46;;;;;;;11.07;10.27;;;;;;;26.52;100.00;96640.81;4803449;28;20228;-61
2023/09/12 10:46:15;;;;;;;11.87;10.83;;;;;;;26.40;100.00;96633.16;4817505;28;23103;-60
2023/09/12 10:48:43;;;;;;;11.37;10.67;;;;;;;26.48;100.00;96634.38;4935093;28;20333;-62
2023/09/12 10:51:13;;;;;;;11.80;10.80;;;;;;;26.53;100.00;96641.63;4934515;28;20223;-60
2023/09/12 10:53:48;;;;;;;12.13;11.03;;;;;;;26.55;100.00;96634.78;4934335;28;20276;-60
2023/09/12 10:56:18;;;;;;;12.00;11.00;;;;;;;26.58;100.00;96638.81;4888077;28;20492;-64
2023/09/12 10:59:12;;;;;;;11.43;10.53;;;;;;;26.61;100.00;96638.22;4938225;28;20203;-62
2023/09/12 11:01:45;;;;;;;11.87;10.80;;;;;;;26.80;100.00;96635.38;4922404;28;20247;-63
2023/09/12 11:04:34;;;;;;;11.40;10.60;;;;;;;26.94;100.00;96634.59;4937293;28;20671;-60
2023/09/12 11:07:02;;;;;;;11.37;10.47;;;;;;;27.06;100.00;96636.78;4887877;28;20855;-61
2023/09/12 11:09:29;;;;;;;11.57;10.67;;;;;;;27.06;100.00;96626.69;4935728;28;20212;-62
2023/09/12 11:12:00;;;;;;;11.37;10.40;;;;;;;27.01;100.00;96630.34;4932094;28;20238;-60
2023/09/12 11:14:27;;;;;;;12.27;11.03;;;;;;;27.04;100.00;96633.56;4937291;28;20728;-60
2023/09/12 11:17:25;;;;;;;11.50;10.70;;;;;;;27.07;100.00;96619.38;4807687;28;20451;-63